N441CF / N441CF 7700 Squawk Report (18th of June, 2019)

Time Lat Lon Altitude Heading Speed Vertical Rate
2019-06-18 16:37:28 GMT 35.840149 -83.955124 1,525 225 93 -512
2019-06-18 16:37:19 GMT 35.843445 -83.951057 1,625 225 93 -512
2019-06-18 16:37:16 GMT 35.844086 -83.950310 1,625 225 92 -448
2019-06-18 16:37:06 GMT 35.847290 -83.946365 1,700 225 94 -512
2019-06-18 16:36:53 GMT 35.851135 -83.941742 1,825 225 94 -512
2019-06-18 16:36:44 GMT 35.853928 -83.938293 1,900 226 96 -512
2019-06-18 16:36:33 GMT 35.857224 -83.934235 1,975 225 98 -512
2019-06-18 16:36:24 GMT 35.860634 -83.930115 2,075 225 99 -512
2019-06-18 16:36:11 GMT 35.864502 -83.925423 2,175 225 101 -448
2019-06-18 16:36:02 GMT 35.867569 -83.921753 2,250 225 103 -576
2019-06-18 16:35:52 GMT 35.871246 -83.917313 2,350 225 103 -512
2019-06-18 16:35:40 GMT 35.875015 -83.912697 2,450 226 105 -512
2019-06-18 16:35:31 GMT 35.878555 -83.908318 2,550 226 107 -704
2019-06-18 16:35:19 GMT 35.882263 -83.903671 2,675 226 103 -512
2019-06-18 16:35:09 GMT 35.885769 -83.899376 2,700 225 100 -64
2019-06-18 16:34:58 GMT 35.889542 -83.894753 2,725 225 101 128
2019-06-18 16:34:47 GMT 35.892895 -83.890671 2,725 224 104 -128
2019-06-18 16:34:37 GMT 35.896805 -83.886047 2,700 225 108 64
2019-06-18 16:34:26 GMT 35.900902 -83.881142 2,700 225 114 192
2019-06-18 16:34:14 GMT 35.905380 -83.875580 2,700 226 125 0
2019-06-18 16:34:05 GMT 35.909592 -83.870316 2,700 226 134 -128
2019-06-18 16:33:53 GMT 35.914215 -83.864479 2,800 228 137 -704
2019-06-18 16:33:44 GMT 35.918728 -83.858528 2,900 225 135 -640
2019-06-18 16:33:32 GMT 35.924744 -83.853783 3,025 196 136 -704
2019-06-18 16:33:21 GMT 35.933811 -83.851685 3,200 190 134 -640
2019-06-18 16:33:05 GMT 35.941086 -83.850227 3,300 190 133 -640
2019-06-18 16:32:54 GMT 35.947220 -83.849030 3,825 189 130 -704
2019-06-18 16:32:25 GMT 35.964909 -83.845261 3,800 190 124 -640
2019-06-18 16:32:18 GMT 35.968185 -83.844795 3,850 183 124 -640
2019-06-18 16:32:08 GMT 35.974545 -83.846840 3,875 146 135 -192
2019-06-18 16:31:22 GMT 35.993118 -83.878632 4,250 90 173 -576
2019-06-18 16:31:11 GMT 35.993179 -83.889603 4,375 90 173 -640
2019-06-18 16:31:03 GMT 35.990570 -83.913750 4,650 89 173 -448
2019-06-18 16:30:46 GMT 35.990570 -83.913750 4,600 57 177 -640
2019-06-18 16:30:41 GMT 35.987675 -83.917953 4,675 44 175 -512
2019-06-18 16:30:38 GMT 35.986221 -83.919701 4,675 43 175 -512
2019-06-18 16:30:25 GMT 35.978642 -83.928474 4,800 42 171 -640
2019-06-18 16:30:21 GMT 35.975784 -83.931709 4,875 43 166 0
2019-06-18 16:30:14 GMT 35.972214 -83.935722 4,900 41 167 -64
2019-06-18 16:30:07 GMT 35.968231 -83.940063 4,900 41 168 -128
2019-06-18 16:30:00 GMT 35.963928 -83.944756 4,900 41 167 -64
2019-06-18 16:29:50 GMT 35.958069 -83.951340 4,900 42 167 -64
2019-06-18 16:29:36 GMT 35.950291 -83.960381 4,925 43 164 -64
2019-06-18 16:29:29 GMT 35.946213 -83.965240 4,925 44 163 0
2019-06-18 16:29:17 GMT 35.934814 -83.978867 4,925 44 162 128
2019-06-18 16:29:08 GMT 35.934814 -83.978867 4,900 44 169 64
2019-06-18 16:28:56 GMT 35.928829 -83.986099 4,900 44 171 -64
2019-06-18 16:28:47 GMT 35.922913 -83.993279 4,900 44 171 -128
2019-06-18 16:28:35 GMT 35.916634 -84.000763 4,900 44 169 0
2019-06-18 16:28:23 GMT 35.908161 -84.010872 4,900 44 169 64
2019-06-18 16:28:14 GMT 35.904190 -84.015717 4,900 44 169 -64
2019-06-18 16:28:03 GMT 35.898560 -84.022469 4,925 44 170 64
2019-06-18 16:27:53 GMT 35.892612 -84.029633 4,900 44 170 -64
2019-06-18 16:27:40 GMT 35.885880 -84.037682 4,900 44 171 64
2019-06-18 16:27:31 GMT 35.880157 -84.044495 4,925 44 171 128
2019-06-18 16:27:23 GMT 35.876179 -84.049385 4,900 44 173 -64
2019-06-18 16:27:20 GMT 35.874527 -84.051414 4,900 44 173 0
2019-06-18 16:27:10 GMT 35.868126 -84.059143 4,900 44 175 -64
2019-06-18 16:26:58 GMT 35.861801 -84.066750 4,900 44 176 0
2019-06-18 16:26:49 GMT 35.855804 -84.073906 4,900 44 177 0
2019-06-18 16:26:39 GMT 35.849854 -84.081001 4,900 43 181 -128
2019-06-18 16:26:22 GMT 35.840614 -84.091927 4,925 43 178 128
2019-06-18 16:26:02 GMT 35.828156 -84.106461 4,925 43 181 64
2019-06-18 16:25:40 GMT 35.814056 -84.122772 4,900 42 182 0
2019-06-18 16:25:23 GMT 35.804352 -84.133888 4,900 43 181 0
2019-06-18 16:25:06 GMT 35.794281 -84.145660 4,900 45 176 -64
2019-06-18 16:25:02 GMT 35.791782 -84.148727 4,925 44 176 0
2019-06-18 16:24:49 GMT 35.784210 -84.158020 4,925 45 176 64
2019-06-18 16:24:36 GMT 35.777115 -84.167007 4,900 45 176 64
2019-06-18 16:24:26 GMT 35.771118 -84.174438 4,900 44 176 -64
2019-06-18 16:24:13 GMT 35.763474 -84.183601 4,900 43 178 0
2019-06-18 16:24:02 GMT 35.756836 -84.191261 4,900 43 179 0
2019-06-18 16:23:50 GMT 35.749840 -84.199570 4,900 43 178 0
2019-06-18 16:23:38 GMT 35.742714 -84.207924 4,900 44 176 128
2019-06-18 16:23:27 GMT 35.736237 -84.215752 4,900 45 176 -64
2019-06-18 16:23:14 GMT 35.728729 -84.225021 4,925 44 177 64
2019-06-18 16:23:01 GMT 35.721069 -84.234512 4,900 45 179 0
2019-06-18 16:22:49 GMT 35.713806 -84.243805 4,900 46 180 0
2019-06-18 16:22:36 GMT 35.706665 -84.252831 4,900 45 179 0
2019-06-18 16:22:24 GMT 35.699524 -84.261703 4,925 45 180 64
2019-06-18 16:22:13 GMT 35.692795 -84.269943 4,925 44 179 128
2019-06-18 16:22:01 GMT 35.685596 -84.278694 4,925 45 181 0
2019-06-18 16:21:49 GMT 35.678513 -84.287392 4,900 45 182 0
2019-06-18 16:21:37 GMT 35.671631 -84.295815 4,900 44 183 -64
2019-06-18 16:21:25 GMT 35.664555 -84.304466 4,925 45 182 0
2019-06-18 16:21:13 GMT 35.657364 -84.313377 4,900 46 181 64
2019-06-18 16:21:01 GMT 35.650494 -84.322350 4,900 46 181 -64
2019-06-18 16:20:49 GMT 35.643631 -84.331169 4,925 45 180 64
2019-06-18 16:20:37 GMT 35.636391 -84.340408 4,900 46 179 -128
2019-06-18 16:20:25 GMT 35.629734 -84.349113 4,925 46 176 64
2019-06-18 16:20:11 GMT 35.621864 -84.359398 4,900 46 176 64
2019-06-18 16:20:02 GMT 35.616577 -84.366302 4,900 47 176 -64
2019-06-18 16:19:50 GMT 35.609894 -84.375114 4,900 47 176 -64
2019-06-18 16:19:38 GMT 35.603439 -84.383583 4,900 47 176 -64
2019-06-18 16:19:26 GMT 35.596725 -84.392471 4,925 46 175 128
2019-06-18 16:19:14 GMT 35.590210 -84.401062 4,900 46 174 64
2019-06-18 16:19:03 GMT 35.583878 -84.409477 4,900 47 174 64
2019-06-18 16:18:50 GMT 35.577129 -84.418358 4,900 46 175 0
2019-06-18 16:18:39 GMT 35.570660 -84.426720 4,900 47 176 -64
2019-06-18 16:18:27 GMT 35.564026 -84.435478 4,900 47 176 0
2019-06-18 16:18:14 GMT 35.557114 -84.444580 4,900 46 176 64
2019-06-18 16:18:02 GMT 35.550247 -84.453445 4,900 46 176 128
2019-06-18 16:17:51 GMT 35.543930 -84.461861 4,900 50 177 -128
2019-06-18 16:17:39 GMT 35.538258 -84.471367 4,925 54 176 -64
2019-06-18 16:17:27 GMT 35.532719 -84.480949 4,900 54 175 -128
2019-06-18 16:17:15 GMT 35.526943 -84.490944 4,900 55 178 -64
2019-06-18 16:17:03 GMT 35.521271 -84.500832 4,900 55 180 0
2019-06-18 16:16:51 GMT 35.515121 -84.511513 4,900 54 181 0
2019-06-18 16:16:39 GMT 35.509300 -84.521622 4,925 54 182 0
2019-06-18 16:16:27 GMT 35.503529 -84.531731 4,900 55 180 0
2019-06-18 16:16:16 GMT 35.498268 -84.540909 4,900 54 179 0
2019-06-18 16:16:04 GMT 35.492683 -84.550545 4,900 54 178 0
2019-06-18 16:15:52 GMT 35.487122 -84.560226 4,925 54 177 64
2019-06-18 16:15:40 GMT 35.481445 -84.569946 4,900 54 179 -64
2019-06-18 16:15:28 GMT 35.475586 -84.580078 4,900 54 179 0
2019-06-18 16:15:17 GMT 35.470200 -84.589470 4,900 54 179 0
2019-06-18 16:15:06 GMT 35.464645 -84.598961 4,900 54 180 0
2019-06-18 16:14:53 GMT 35.458511 -84.609657 4,900 54 180 0
2019-06-18 16:14:41 GMT 35.452972 -84.619164 4,900 54 180 0
2019-06-18 16:14:29 GMT 35.446976 -84.629578 4,900 54 180 0
2019-06-18 16:14:16 GMT 35.440868 -84.640251 4,900 54 180 0
2019-06-18 16:14:04 GMT 35.434891 -84.650520 4,900 54 180 0
2019-06-18 16:13:51 GMT 35.428894 -84.660873 4,900 54 180 0
2019-06-18 16:13:36 GMT 35.421227 -84.674141 4,900 54 180 0
2019-06-18 16:13:26 GMT 35.416386 -84.682556 4,900 54 181 0
2019-06-18 16:13:16 GMT 35.411591 -84.690796 4,900 54 182 -64
2019-06-18 16:13:01 GMT 35.404419 -84.703247 4,900 54 181 0
2019-06-18 16:12:51 GMT 35.399506 -84.711739 4,900 54 182 0
2019-06-18 16:12:41 GMT 35.394516 -84.720322 4,900 54 182 0
2019-06-18 16:12:28 GMT 35.388222 -84.731239 4,900 54 182 0
2019-06-18 16:11:13 GMT 35.351677 -84.794235 4,900 54 182 0
2019-06-18 16:11:07 GMT 35.348370 -84.799957 4,900 54 182 0
2019-06-18 16:10:38 GMT 35.334457 -84.823837 4,900 54 181 0
We lost coverage of the aircraft here for a total of 13 minutes
2019-06-18 15:57:12 GMT 35.374115 -85.005608 3,825 209 162 0
2019-06-18 15:56:46 GMT 35.391151 -84.994324 3,850 209 160 -64
2019-06-18 15:56:10 GMT 35.412964 -84.979759 3,850 210 131 0
2019-06-18 15:56:01 GMT 35.417919 -84.976387 3,775 209 121 960
2019-06-18 15:55:45 GMT 35.425461 -84.971420 3,525 209 121 960
2019-06-18 15:55:23 GMT 35.436634 -84.963997 3,150 209 122 1024
2019-06-18 15:55:11 GMT 35.442444 -84.960075 2,950 209 122 1024
2019-06-18 15:54:59 GMT 35.448669 -84.956017 2,725 209 122 1024
2019-06-18 15:54:47 GMT 35.454372 -84.952194 2,550 209 122 1024
2019-06-18 15:54:35 GMT 35.460468 -84.948158 2,325 209 122 1024
2019-06-18 15:54:23 GMT 35.466660 -84.943939 2,125 209 122 1024
2019-06-18 15:54:09 GMT 35.473251 -84.939484 1,875 210 121 960
2019-06-18 15:53:59 GMT 35.478298 -84.936066 1,700 210 119 1024
2019-06-18 15:53:40 GMT 35.487305 -84.929871 1,400 210 115 832
2019-06-18 15:53:35 GMT 35.489891 -84.928116 1,325 209 114 704
2019-06-18 15:53:23 GMT 35.494919 -84.924904 1,200 206 108 640
2019-06-18 15:52:55 GMT 35.507206 -84.917191 1,000 209 99 -640
2019-06-18 15:52:48 GMT 35.509689 -84.915565 1,075 210 98 -448
2019-06-18 15:52:36 GMT 35.514565 -84.912277 1,175 209 93 -448
2019-06-18 15:52:19 GMT 35.520706 -84.908188 1,300 208 89 -384
2019-06-18 15:51:55 GMT 35.529926 -84.902054 1,475 209 93 -576
2019-06-18 15:51:49 GMT 35.531845 -84.900742 1,525 209 94 -512
2019-06-18 15:51:38 GMT 35.536423 -84.897766 1,625 209 95 -512
2019-06-18 15:51:26 GMT 35.541096 -84.894630 1,725 209 98 -448
2019-06-18 15:51:14 GMT 35.545944 -84.891418 1,825 209 98 -640
2019-06-18 15:50:59 GMT 35.551804 -84.887527 1,950 209 101 -512
2019-06-18 15:50:50 GMT 35.555832 -84.884834 2,050 209 103 -576
2019-06-18 15:50:38 GMT 35.560913 -84.881454 2,150 209 103 -640
2019-06-18 15:50:26 GMT 35.565865 -84.878151 2,275 209 104 -640
2019-06-18 15:50:07 GMT 35.574383 -84.872482 2,375 209 118 -512
2019-06-18 15:50:02 GMT 35.576851 -84.870850 2,425 209 121 -576
2019-06-18 15:49:50 GMT 35.582855 -84.866875 2,525 209 123 -576
2019-06-18 15:49:39 GMT 35.588440 -84.863129 2,650 209 124 -640
2019-06-18 15:49:27 GMT 35.594467 -84.859138 2,750 209 123 -640
2019-06-18 15:49:15 GMT 35.600311 -84.855186 2,875 209 123 -576
2019-06-18 15:49:03 GMT 35.606411 -84.851151 3,000 209 121 -512
2019-06-18 15:48:51 GMT 35.612274 -84.847237 3,100 209 122 -512
2019-06-18 15:48:39 GMT 35.618271 -84.843292 3,200 209 122 -512
2019-06-18 15:48:28 GMT 35.624241 -84.839287 3,275 209 124 -64
2019-06-18 15:48:16 GMT 35.630173 -84.835281 3,350 209 126 -448
2019-06-18 15:48:04 GMT 35.636215 -84.831276 3,450 210 125 -512
2019-06-18 15:47:52 GMT 35.642719 -84.826897 3,550 208 125 -448
2019-06-18 15:47:39 GMT 35.649078 -84.822746 3,650 209 126 -448
2019-06-18 15:47:27 GMT 35.655396 -84.818520 3,750 209 124 -512
2019-06-18 15:47:15 GMT 35.661110 -84.814690 3,825 209 118 -64
2019-06-18 15:47:01 GMT 35.667812 -84.810249 3,850 209 116 0
2019-06-18 15:46:49 GMT 35.673706 -84.806213 3,825 209 116 0
2019-06-18 15:46:39 GMT 35.678425 -84.803055 3,850 209 116 0
2019-06-18 15:46:27 GMT 35.683968 -84.799255 3,825 210 116 0
2019-06-18 15:46:15 GMT 35.689739 -84.795341 3,825 210 116 0
2019-06-18 15:46:03 GMT 35.695370 -84.791489 3,825 210 118 0
2019-06-18 15:45:51 GMT 35.701096 -84.787514 3,825 210 118 0
2019-06-18 15:45:39 GMT 35.706894 -84.783554 3,850 210 118 0
2019-06-18 15:45:26 GMT 35.713348 -84.779091 3,825 209 119 0
2019-06-18 15:45:11 GMT 35.720554 -84.774246 3,825 209 121 0
2019-06-18 15:45:03 GMT 35.724514 -84.771622 3,825 208 126 0
2019-06-18 15:44:52 GMT 35.730698 -84.767990 3,825 201 133 -128
2019-06-18 15:44:34 GMT 35.742142 -84.767815 3,850 164 151 -128
2019-06-18 15:44:28 GMT 35.745941 -84.770508 3,875 139 160 -448
2019-06-18 15:44:15 GMT 35.751114 -84.780464 3,975 106 164 -320
2019-06-18 15:44:05 GMT 35.750977 -84.790131 4,050 69 167 -512
2019-06-18 15:43:51 GMT 35.744705 -84.800262 4,175 33 163 -576
2019-06-18 15:43:40 GMT 35.737782 -84.804932 4,250 27 161 -512
2019-06-18 15:43:28 GMT 35.729919 -84.809990 4,350 27 160 -448
2019-06-18 15:43:16 GMT 35.721485 -84.815392 4,450 27 161 -576
2019-06-18 15:43:04 GMT 35.713852 -84.820290 4,550 27 162 -448
2019-06-18 15:42:52 GMT 35.705704 -84.825500 4,650 27 162 -320
2019-06-18 15:42:40 GMT 35.697418 -84.829239 4,750 6 158 -448
2019-06-18 15:42:27 GMT 35.688343 -84.826958 4,850 329 147 -576
2019-06-18 15:42:14 GMT 35.681808 -84.820290 4,925 318 140 0
2019-06-18 15:42:03 GMT 35.676636 -84.814453 4,950 318 140 -64
2019-06-18 15:41:51 GMT 35.670685 -84.807816 4,925 318 140 0
2019-06-18 15:41:40 GMT 35.665375 -84.801926 4,925 318 140 0
2019-06-18 15:41:28 GMT 35.659653 -84.795570 4,925 318 141 0
2019-06-18 15:41:14 GMT 35.653015 -84.788193 4,950 318 141 -64
2019-06-18 15:41:05 GMT 35.648167 -84.782837 4,950 318 143 128
2019-06-18 15:40:53 GMT 35.642582 -84.776588 4,925 318 143 0
2019-06-18 15:40:40 GMT 35.636158 -84.769394 4,925 318 144 0
2019-06-18 15:40:29 GMT 35.630569 -84.763206 4,925 318 145 0
2019-06-18 15:40:17 GMT 35.624588 -84.756546 4,925 318 147 -64
2019-06-18 15:40:05 GMT 35.618500 -84.749794 4,925 319 152 0
2019-06-18 15:39:53 GMT 35.612000 -84.742638 4,925 318 157 0
2019-06-18 15:39:42 GMT 35.605759 -84.735741 4,925 318 164 -256
2019-06-18 15:39:30 GMT 35.598862 -84.728104 5,050 318 167 -512
2019-06-18 15:39:18 GMT 35.591980 -84.720543 5,150 319 167 -640
2019-06-18 15:39:07 GMT 35.585506 -84.713356 5,275 319 169 -640
2019-06-18 15:38:55 GMT 35.578480 -84.705643 5,400 318 171 -576
2019-06-18 15:38:41 GMT 35.570705 -84.696938 5,525 318 171 -512
2019-06-18 15:38:30 GMT 35.564713 -84.688744 5,625 297 164 -512
2019-06-18 15:38:18 GMT 35.563202 -84.678207 5,750 260 155 -640
2019-06-18 15:38:06 GMT 35.565819 -84.668243 5,850 250 151 -576
2019-06-18 15:37:54 GMT 35.568558 -84.659042 5,950 250 145 0
2019-06-18 15:37:42 GMT 35.571308 -84.649948 5,925 250 146 -64
2019-06-18 15:37:31 GMT 35.574097 -84.640846 5,925 250 146 0
2019-06-18 15:37:13 GMT 35.578293 -84.626923 5,925 250 146 64
2019-06-18 15:36:45 GMT 35.584717 -84.605431 5,950 251 146 0
2019-06-18 15:36:33 GMT 35.587418 -84.596275 5,925 250 142 0
We lost coverage of the aircraft here for a total of 7 minutes
2019-06-18 15:29:44 GMT 35.682102 -84.279510 5,925 251 147 -64
2019-06-18 15:29:22 GMT 35.687271 -84.262215 5,950 251 147 -64
2019-06-18 15:28:46 GMT 35.696091 -84.232574 5,950 251 133 128
2019-06-18 15:28:10 GMT 35.705055 -84.202492 5,950 251 151 0
2019-06-18 15:27:26 GMT 35.714458 -84.170296 5,800 251 129 896
2019-06-18 15:27:11 GMT 35.717651 -84.159508 4,900 251 129 896
2019-06-18 15:26:09 GMT 35.731979 -84.110703 4,575 252 129 960
2019-06-18 15:25:44 GMT 35.735126 -84.099174 4,325 253 130 704
2019-06-18 15:25:25 GMT 35.738525 -84.085670 4,125 254 116 896
2019-06-18 15:25:14 GMT 35.740154 -84.079071 3,950 254 116 896
2019-06-18 15:25:06 GMT 35.741364 -84.073982 3,850 252 115 832
2019-06-18 15:24:59 GMT 35.742481 -84.070068 3,750 222 115 960
2019-06-18 15:24:52 GMT 35.744019 -84.065781 3,600 241 113 960
2019-06-18 15:24:40 GMT 35.747726 -84.060059 3,425 223 112 1088
2019-06-18 15:24:28 GMT 35.752537 -84.054764 3,175 222 116 768

Making use of Plane Finder data

You are free to use the raw flight data, aircraft information and images provided in this report for your own purposes provided the data is correctly attributed to Plane Finder. We ask that you please credit Plane Finder and link to planefinder.net in close proximity to the content.

Optionally one of the following logos (no smaller then 150x24px) can be used and must link to planefinder.net

Embedding the Plane Finder map

You are welcome to embed the Plane Finder playback map on your website to offer visitors a more interactive experience. We suggest using the following HTML code:

<iframe src="//planefinder.net/data/report/N441CF-N441CF-7700-squawk-2019-06-18/map" width="800" height="600" seamless="seamless"></iframe>

Where our data comes from

Plane Finder has a global network of data feeds and antenna radars that receive data broadcast directly from aircraft. The primary technologies used are ADS-B and MLAT. We also show feeds from the FAA and a FLARM glider feed.

Click here to find out more about the Plane Finder network.

How we collect our data